createdAt,value
2022-09-07T00:00:06.208Z,0.00
2022-09-07T00:01:06.492Z,0.00
2022-09-07T00:02:06.816Z,0.00
2022-09-07T00:03:07.118Z,1.00
2022-09-07T00:04:07.480Z,1.00
2022-09-07T00:05:07.744Z,0.00
2022-09-07T00:06:08.027Z,0.00
2022-09-07T00:07:08.350Z,0.00
2022-09-07T00:08:08.524Z,0.00
2022-09-07T00:09:08.841Z,0.00
2022-09-07T00:10:09.058Z,0.00
2022-09-07T00:11:09.337Z,0.00
2022-09-07T00:12:09.640Z,0.00
2022-09-07T00:13:09.894Z,0.00
2022-09-07T00:14:10.250Z,0.00
2022-09-07T00:15:10.465Z,0.00
2022-09-07T00:16:10.701Z,0.00
2022-09-07T00:17:10.971Z,1.00
2022-09-07T00:18:11.279Z,0.00
2022-09-07T00:19:11.544Z,1.00
2022-09-07T00:20:11.922Z,1.00
2022-09-07T00:21:12.240Z,0.00
2022-09-07T00:22:12.535Z,0.00
2022-09-07T00:23:12.880Z,0.00
2022-09-07T00:24:13.184Z,0.00
2022-09-07T00:25:13.447Z,0.00
2022-09-07T00:26:13.784Z,0.00
2022-09-07T00:27:14.052Z,0.00
2022-09-07T00:28:14.358Z,0.00
2022-09-07T00:29:14.730Z,0.00
2022-09-07T00:30:15.018Z,0.00
2022-09-07T00:31:15.442Z,0.00
2022-09-07T00:32:15.764Z,0.00
2022-09-07T00:33:15.847Z,0.00
2022-09-07T00:34:16.197Z,0.00
2022-09-07T00:35:16.520Z,0.00
2022-09-07T00:36:16.827Z,0.00
2022-09-07T00:37:17.183Z,0.00
2022-09-07T00:38:17.334Z,1.00
2022-09-07T00:39:17.668Z,0.00
2022-09-07T00:40:17.925Z,0.00
2022-09-07T00:41:18.224Z,0.00
2022-09-07T00:42:18.569Z,0.00
2022-09-07T00:43:18.898Z,0.00
2022-09-07T00:44:19.069Z,0.00
2022-09-07T00:45:19.418Z,0.00
2022-09-07T00:46:19.705Z,0.00
2022-09-07T00:47:19.814Z,1.00
2022-09-07T00:48:20.182Z,0.00
2022-09-07T00:49:20.501Z,0.00
2022-09-07T00:50:20.881Z,0.00
2022-09-07T00:51:21.175Z,0.00
2022-09-07T00:52:21.526Z,0.00
2022-09-07T00:53:21.779Z,0.00
2022-09-07T00:54:22.023Z,0.00
2022-09-07T00:55:22.357Z,0.00
2022-09-07T00:56:23.087Z,0.00
2022-09-07T00:57:22.873Z,0.00
2022-09-07T00:58:23.096Z,0.00
2022-09-07T00:59:23.376Z,1.00
2022-09-07T01:00:23.771Z,0.00
2022-09-07T01:01:24.281Z,0.00
2022-09-07T01:02:24.330Z,0.00
2022-09-07T01:03:24.613Z,0.00
2022-09-07T01:04:24.881Z,0.00
2022-09-07T01:05:25.150Z,0.00
2022-09-07T01:06:25.485Z,0.00
2022-09-07T01:07:25.781Z,0.00
2022-09-07T01:08:26.090Z,0.00
2022-09-07T01:09:26.299Z,0.00
2022-09-07T01:10:26.628Z,0.00
2022-09-07T01:11:26.967Z,0.00
2022-09-07T01:12:27.229Z,0.00
2022-09-07T01:13:27.491Z,0.00
2022-09-07T01:14:27.844Z,0.00
2022-09-07T01:15:28.030Z,0.00
2022-09-07T01:16:28.467Z,0.00
2022-09-07T01:17:28.629Z,0.00
2022-09-07T01:18:29.037Z,0.00
2022-09-07T01:19:29.280Z,0.00
2022-09-07T01:20:29.540Z,0.00
2022-09-07T01:21:29.877Z,0.00
2022-09-07T01:22:30.076Z,0.00
2022-09-07T01:23:30.380Z,0.00
2022-09-07T01:24:30.733Z,0.00
2022-09-07T01:25:31.052Z,0.00
2022-09-07T01:26:31.294Z,0.00
2022-09-07T01:27:31.557Z,0.00
2022-09-07T01:28:31.849Z,0.00
2022-09-07T01:29:32.024Z,0.00
2022-09-07T01:30:32.384Z,0.00
2022-09-07T01:31:32.750Z,0.00
2022-09-07T01:32:33.012Z,0.00
2022-09-07T01:33:33.246Z,0.00
2022-09-07T01:34:33.524Z,0.00
2022-09-07T01:35:33.782Z,0.00
2022-09-07T01:36:33.996Z,1.00
2022-09-07T01:37:34.268Z,0.00
2022-09-07T01:38:34.576Z,0.00
2022-09-07T01:39:34.920Z,0.00
2022-09-07T01:40:35.150Z,0.00
2022-09-07T01:41:35.472Z,0.00
2022-09-07T01:42:35.713Z,0.00
2022-09-07T01:43:36.032Z,0.00
2022-09-07T01:44:36.318Z,0.00
2022-09-07T01:45:36.659Z,0.00
2022-09-07T01:46:37.101Z,0.00
2022-09-07T01:47:37.245Z,0.00
2022-09-07T01:48:37.469Z,0.00
2022-09-07T01:49:37.788Z,0.00
2022-09-07T01:50:38.075Z,0.00
2022-09-07T01:51:38.402Z,0.00
2022-09-07T01:52:38.686Z,0.00
2022-09-07T01:53:39.031Z,0.00
2022-09-07T01:54:39.227Z,0.00
2022-09-07T01:55:39.522Z,1.00
2022-09-07T01:56:39.831Z,1.00
2022-09-07T01:57:40.148Z,0.00
2022-09-07T01:58:40.443Z,0.00
2022-09-07T01:59:40.791Z,0.00
2022-09-07T02:00:41.196Z,1.00
2022-09-07T02:01:41.496Z,0.00
2022-09-07T02:02:41.756Z,0.00
2022-09-07T02:03:41.956Z,0.00
2022-09-07T02:04:42.284Z,0.00
2022-09-07T02:05:42.506Z,0.00
2022-09-07T02:06:42.870Z,0.00
2022-09-07T02:07:43.197Z,0.00
2022-09-07T02:08:43.502Z,0.00
2022-09-07T02:09:43.793Z,0.00
2022-09-07T02:10:44.096Z,0.00
2022-09-07T02:11:44.356Z,0.00
2022-09-07T02:12:44.730Z,0.00
2022-09-07T02:13:44.957Z,0.00
2022-09-07T02:14:48.277Z,0.00
2022-09-07T02:15:46.609Z,0.00
2022-09-07T02:16:45.802Z,0.00
2022-09-07T02:17:46.107Z,0.00
2022-09-07T02:18:46.451Z,0.00
2022-09-07T02:19:46.762Z,0.00
2022-09-07T02:20:47.109Z,0.00
2022-09-07T02:21:47.299Z,0.00
2022-09-07T02:22:47.582Z,0.00
2022-09-07T02:23:47.872Z,0.00
2022-09-07T02:24:48.312Z,0.00
2022-09-07T02:25:48.585Z,0.00
2022-09-07T02:26:48.861Z,0.00
2022-09-07T02:27:49.173Z,0.00
2022-09-07T02:28:49.469Z,0.00
2022-09-07T02:29:49.757Z,0.00
2022-09-07T02:30:50.102Z,0.00
2022-09-07T02:31:50.333Z,0.00
2022-09-07T02:32:50.698Z,0.00
2022-09-07T02:33:50.989Z,0.00
2022-09-07T02:34:51.272Z,0.00
2022-09-07T02:35:51.583Z,0.00
2022-09-07T02:36:51.914Z,0.00
2022-09-07T02:37:52.176Z,0.00
2022-09-07T02:38:52.438Z,0.00
2022-09-07T02:39:52.754Z,0.00
2022-09-07T02:40:52.924Z,0.00
2022-09-07T02:41:53.165Z,0.00
2022-09-07T02:42:53.448Z,0.00
2022-09-07T02:43:53.820Z,0.00
2022-09-07T02:44:53.983Z,1.00
2022-09-07T02:45:54.419Z,0.00
2022-09-07T02:46:54.712Z,0.00
2022-09-07T02:47:55.023Z,0.00
2022-09-07T02:48:55.358Z,0.00
2022-09-07T02:49:55.646Z,0.00
2022-09-07T02:50:55.977Z,0.00
2022-09-07T02:51:56.268Z,0.00
2022-09-07T02:52:56.566Z,0.00
2022-09-07T02:53:56.866Z,0.00
2022-09-07T02:54:57.068Z,1.00
2022-09-07T02:55:57.404Z,0.00
2022-09-07T02:56:57.716Z,0.00
2022-09-07T02:57:58.033Z,0.00
2022-09-07T02:58:58.334Z,0.00
2022-09-07T02:59:58.651Z,0.00
2022-09-07T03:00:59.045Z,0.00
2022-09-07T03:01:59.170Z,0.00
2022-09-07T03:02:59.612Z,0.00
2022-09-07T03:03:59.723Z,1.00
2022-09-07T03:05:00.040Z,0.00
2022-09-07T03:06:00.709Z,0.00
2022-09-07T03:07:00.570Z,0.00
2022-09-07T03:08:00.876Z,0.00
2022-09-07T03:09:01.182Z,0.00
2022-09-07T03:10:01.458Z,1.00
2022-09-07T03:11:01.727Z,1.00
2022-09-07T03:12:02.012Z,0.00
2022-09-07T03:13:02.258Z,0.00
2022-09-07T03:14:02.561Z,0.00
2022-09-07T03:15:02.820Z,0.00
2022-09-07T03:16:03.228Z,0.00
2022-09-07T03:17:03.556Z,0.00
2022-09-07T03:18:04.182Z,0.00
2022-09-07T03:19:04.034Z,0.00
2022-09-07T03:20:04.364Z,0.00
2022-09-07T03:21:04.647Z,0.00
2022-09-07T03:22:04.940Z,0.00
2022-09-07T03:23:05.296Z,0.00
2022-09-07T03:24:05.594Z,0.00
2022-09-07T03:25:05.935Z,0.00
2022-09-07T03:26:06.238Z,0.00
2022-09-07T03:27:06.566Z,0.00
2022-09-07T03:28:06.937Z,0.00
2022-09-07T03:29:07.207Z,0.00
2022-09-07T03:30:07.519Z,0.00
2022-09-07T03:31:07.940Z,0.00
2022-09-07T03:32:08.126Z,0.00
2022-09-07T03:33:08.386Z,0.00
2022-09-07T03:34:08.728Z,0.00
2022-09-07T03:35:09.029Z,0.00
2022-09-07T03:36:09.351Z,0.00
2022-09-07T03:37:09.654Z,0.00
2022-09-07T03:38:09.920Z,0.00
2022-09-07T03:39:10.240Z,0.00
2022-09-07T03:40:10.571Z,0.00
2022-09-07T03:41:10.743Z,1.00
2022-09-07T03:42:11.094Z,0.00
2022-09-07T03:43:11.432Z,0.00
2022-09-07T03:44:11.677Z,0.00
2022-09-07T03:45:11.992Z,0.00
2022-09-07T03:46:12.257Z,0.00
2022-09-07T03:47:12.522Z,0.00
2022-09-07T03:48:12.843Z,0.00
2022-09-07T03:49:13.161Z,0.00
2022-09-07T03:50:13.480Z,0.00
2022-09-07T03:51:13.774Z,0.00
2022-09-07T03:52:14.134Z,0.00
2022-09-07T03:53:14.305Z,0.00
2022-09-07T03:54:14.592Z,0.00
2022-09-07T03:55:14.921Z,0.00
2022-09-07T03:56:15.217Z,0.00
2022-09-07T03:57:15.475Z,1.00
2022-09-07T03:58:15.823Z,0.00
2022-09-07T03:59:16.107Z,0.00
2022-09-07T04:00:16.426Z,0.00
2022-09-07T04:01:16.726Z,0.00
2022-09-07T04:02:17.078Z,0.00
2022-09-07T04:03:17.355Z,0.00
2022-09-07T04:04:17.691Z,0.00
2022-09-07T04:05:17.996Z,0.00
2022-09-07T04:06:18.244Z,0.00
2022-09-07T04:07:18.550Z,1.00
2022-09-07T04:08:18.825Z,0.00
2022-09-07T04:09:20.159Z,0.00
2022-09-07T04:10:19.451Z,0.00
2022-09-07T04:11:19.836Z,0.00
2022-09-07T04:12:20.074Z,0.00
2022-09-07T04:13:20.389Z,0.00
2022-09-07T04:14:20.698Z,0.00
2022-09-07T04:15:21.012Z,0.00
2022-09-07T04:16:21.369Z,0.00
2022-09-07T04:17:21.576Z,0.00
2022-09-07T04:18:21.827Z,0.00
2022-09-07T04:19:22.175Z,0.00
2022-09-07T04:20:22.449Z,0.00
2022-09-07T04:21:22.714Z,1.00
2022-09-07T04:22:23.138Z,0.00
2022-09-07T04:23:23.324Z,1.00
2022-09-07T04:24:23.615Z,1.00
2022-09-07T04:25:23.757Z,1.00
2022-09-07T04:26:24.085Z,1.00
2022-09-07T04:27:24.334Z,1.00
2022-09-07T04:28:24.647Z,0.00
2022-09-07T04:29:25.023Z,0.00
2022-09-07T04:30:25.232Z,2.00
2022-09-07T04:31:25.490Z,1.00
2022-09-07T04:32:25.698Z,3.00
2022-09-07T04:33:25.959Z,2.00
2022-09-07T04:34:26.202Z,3.00
2022-09-07T04:35:26.508Z,4.00
2022-09-07T04:36:26.700Z,9.00
2022-09-07T04:37:26.922Z,8.00
2022-09-07T04:38:27.362Z,9.00
2022-09-07T04:39:27.571Z,9.00
2022-09-07T04:40:27.796Z,4.00
2022-09-07T04:41:28.050Z,13.00
2022-09-07T04:42:28.307Z,16.00
2022-09-07T04:43:28.623Z,16.00
2022-09-07T04:44:28.835Z,20.00
2022-09-07T04:45:29.065Z,26.00
2022-09-07T04:46:29.584Z,26.00
2022-09-07T04:47:29.801Z,31.00
2022-09-07T04:48:30.171Z,31.00
2022-09-07T04:49:30.312Z,40.00
2022-09-07T04:50:30.566Z,41.00
2022-09-07T04:51:30.818Z,44.00
2022-09-07T04:52:31.078Z,49.00
2022-09-07T04:53:31.330Z,51.00
2022-09-07T04:54:31.579Z,61.00
2022-09-07T04:55:31.850Z,70.00
2022-09-07T04:56:32.124Z,72.00
2022-09-07T04:57:32.410Z,79.00
2022-09-07T04:58:32.713Z,86.00
2022-09-07T04:59:32.942Z,93.00
2022-09-07T05:00:33.272Z,98.00
2022-09-07T05:01:33.544Z,104.00
2022-09-07T05:02:33.873Z,108.00
2022-09-07T05:03:34.047Z,121.00
2022-09-07T05:04:34.329Z,125.00
2022-09-07T05:05:34.556Z,136.00
2022-09-07T05:06:34.931Z,142.00
2022-09-07T05:07:35.178Z,142.00
2022-09-07T05:08:35.455Z,146.00
2022-09-07T05:09:35.709Z,163.00
2022-09-07T05:10:35.985Z,167.00
2022-09-07T05:11:36.273Z,176.00
2022-09-07T05:12:36.481Z,180.00
2022-09-07T05:13:36.731Z,191.00
2022-09-07T05:14:36.988Z,203.00
2022-09-07T05:15:37.278Z,207.00
2022-09-07T05:16:37.538Z,210.00
2022-09-07T05:17:37.710Z,217.00
2022-09-07T05:18:37.963Z,222.00
2022-09-07T05:19:38.257Z,221.00
2022-09-07T05:20:38.510Z,237.00
2022-09-07T05:21:38.762Z,242.00
2022-09-07T05:22:38.981Z,245.00
2022-09-07T05:23:39.227Z,255.00
2022-09-07T05:24:39.508Z,260.00
2022-09-07T05:25:39.760Z,263.00
2022-09-07T05:26:40.056Z,276.00
2022-09-07T05:27:40.346Z,271.00
2022-09-07T05:28:40.557Z,292.00
2022-09-07T05:31:42.340Z,355.00
2022-09-07T05:32:41.582Z,334.00
2022-09-07T05:34:43.230Z,316.00
2022-09-07T05:35:42.495Z,337.00
2022-09-07T05:36:42.783Z,364.00
2022-09-07T05:37:42.988Z,352.00
2022-09-07T05:38:43.693Z,368.00
2022-09-07T05:39:43.573Z,396.00
2022-09-07T05:40:43.787Z,408.00
2022-09-07T05:41:44.050Z,441.00
2022-09-07T05:42:44.272Z,418.00
2022-09-07T05:44:46.124Z,428.00
2022-09-07T05:45:45.113Z,445.00
2022-09-07T05:46:45.325Z,473.00
2022-09-07T05:47:45.645Z,483.00
2022-09-07T05:48:45.877Z,505.00
2022-09-07T05:49:46.141Z,499.00
2022-09-07T05:50:46.392Z,502.00
2022-09-07T05:51:46.627Z,529.00
2022-09-07T05:52:46.884Z,525.00
2022-09-07T05:53:47.157Z,546.00
2022-09-07T05:54:47.455Z,557.00
2022-09-07T05:55:47.692Z,543.00
2022-09-07T05:56:47.915Z,571.00
2022-09-07T05:57:48.155Z,583.00
2022-09-07T05:58:48.449Z,569.00
2022-09-07T05:59:48.762Z,606.00
2022-09-07T06:00:48.946Z,592.00
2022-09-07T06:01:49.325Z,587.00
2022-09-07T06:02:49.557Z,544.00
2022-09-07T06:03:49.726Z,533.00
2022-09-07T06:04:49.917Z,593.00
2022-09-07T06:05:50.334Z,642.00
2022-09-07T06:07:11.034Z,670.00
2022-09-07T06:07:51.835Z,658.00
2022-09-07T06:08:51.122Z,614.00
2022-09-07T06:10:52.661Z,606.00
2022-09-07T06:11:51.919Z,576.00
2022-09-07T06:12:52.199Z,616.00
2022-09-07T06:13:52.412Z,599.00
2022-09-07T06:14:52.656Z,619.00
2022-09-07T06:15:52.923Z,616.00
2022-09-07T06:16:53.238Z,656.00
2022-09-07T06:17:53.489Z,663.00
2022-09-07T06:18:53.773Z,691.00
2022-09-07T06:19:54.008Z,677.00
2022-09-07T06:20:54.263Z,692.00
2022-09-07T06:21:54.530Z,710.00
2022-09-07T06:22:54.758Z,743.00
2022-09-07T06:23:55.006Z,725.00
2022-09-07T06:24:55.242Z,756.00
2022-09-07T06:25:55.469Z,763.00
2022-09-07T06:26:55.737Z,736.00
2022-09-07T06:27:56.468Z,754.00
2022-09-07T06:28:58.021Z,738.00
2022-09-07T06:29:56.503Z,763.00
2022-09-07T06:30:56.795Z,735.00
2022-09-07T06:32:58.250Z,761.00
2022-09-07T06:33:57.447Z,757.00
2022-09-07T06:34:57.709Z,774.00
2022-09-07T06:35:58.012Z,762.00
2022-09-07T06:36:58.324Z,749.00
2022-09-07T06:37:58.543Z,742.00
2022-09-07T06:38:58.846Z,770.00
2022-09-07T06:39:59.129Z,813.00
2022-09-07T06:42:00.904Z,883.00
2022-09-07T06:43:00.033Z,884.00
2022-09-07T06:44:00.240Z,882.00
2022-09-07T06:45:00.514Z,1004.00
2022-09-07T06:48:01.453Z,1340.00
2022-09-07T06:49:01.680Z,1345.00
2022-09-07T06:50:01.900Z,1332.00
2022-09-07T06:51:02.168Z,1324.00
2022-09-07T06:52:02.403Z,1321.00
2022-09-07T06:55:04.287Z,1755.00
2022-09-07T06:56:03.601Z,1447.00
2022-09-07T06:57:03.840Z,843.00
2022-09-07T06:58:04.088Z,1231.00
2022-09-07T06:59:04.356Z,1286.00
2022-09-07T07:00:04.585Z,1540.00
2022-09-07T07:01:04.905Z,1458.00
2022-09-07T07:02:05.176Z,1459.00
2022-09-07T07:03:05.441Z,1396.00
2022-09-07T07:04:05.659Z,1389.00
2022-09-07T07:05:05.981Z,1452.00
2022-09-07T07:06:06.230Z,1454.00
2022-09-07T07:07:06.445Z,1377.00
2022-09-07T07:08:06.717Z,1402.00
2022-09-07T07:09:06.967Z,1493.00
2022-09-07T07:10:07.288Z,1363.00
2022-09-07T07:11:07.539Z,1391.00
2022-09-07T07:12:07.978Z,1397.00
2022-09-07T07:13:08.089Z,1461.00
2022-09-07T07:14:08.326Z,1911.00
2022-09-07T07:15:08.626Z,1476.00
2022-09-07T07:16:08.891Z,1602.00
2022-09-07T07:17:09.319Z,1594.00
2022-09-07T07:18:20.977Z,1514.00
2022-09-07T07:19:10.669Z,1532.00
2022-09-07T07:20:10.467Z,1624.00
2022-09-07T07:21:10.280Z,1720.00
2022-09-07T07:23:11.768Z,1679.00
2022-09-07T07:24:11.036Z,1624.00
2022-09-07T07:25:11.325Z,1699.00
2022-09-07T07:26:11.620Z,1813.00
2022-09-07T07:27:11.922Z,1943.00
2022-09-07T07:29:17.054Z,1873.00
2022-09-07T07:30:13.747Z,1920.00
2022-09-07T07:31:13.367Z,2055.00
2022-09-07T07:32:13.239Z,2055.00
2022-09-07T07:33:13.517Z,2021.00
2022-09-07T07:34:13.853Z,1476.00
2022-09-07T07:35:13.982Z,1989.00
2022-09-07T07:36:14.237Z,1915.00
2022-09-07T07:37:14.504Z,1787.00
2022-09-07T07:40:17.916Z,1633.00
2022-09-07T07:42:16.995Z,1965.00
2022-09-07T07:43:16.278Z,1914.00
2022-09-07T07:44:16.585Z,2728.00
2022-09-07T07:46:18.140Z,2036.00
2022-09-07T07:47:17.404Z,992.00
2022-09-07T07:48:17.592Z,3066.00
2022-09-07T07:49:17.867Z,2208.00
2022-09-07T07:50:34.580Z,2108.00
2022-09-07T07:51:19.453Z,2711.00
2022-09-07T07:54:20.339Z,1853.00
2022-09-07T07:56:20.883Z,1909.00
2022-09-07T07:57:20.119Z,1964.00
2022-09-07T07:58:20.358Z,1991.00
2022-09-07T07:59:20.627Z,2009.00
2022-09-07T08:00:37.387Z,2082.00
2022-09-07T08:01:22.228Z,1995.00
2022-09-07T08:02:21.424Z,2184.00
2022-09-07T08:03:21.663Z,2067.00
2022-09-07T08:04:21.921Z,2110.00
2022-09-07T08:05:22.167Z,2258.00
2022-09-07T08:06:22.432Z,3243.00
2022-09-07T08:07:22.677Z,1164.00
2022-09-07T08:08:22.940Z,2425.00
2022-09-07T08:09:23.198Z,2522.00
2022-09-07T08:10:23.469Z,2807.00
2022-09-07T08:11:23.805Z,2558.00
2022-09-07T08:12:29.145Z,1250.00
2022-09-07T08:13:25.253Z,2534.00
2022-09-07T08:14:24.552Z,2560.00
2022-09-07T08:15:24.799Z,2736.00
2022-09-07T08:16:25.143Z,2497.00
2022-09-07T08:17:25.337Z,2481.00
2022-09-07T08:18:25.576Z,2637.00
2022-09-07T08:19:25.808Z,2593.00
2022-09-07T08:20:26.106Z,2706.00
2022-09-07T08:21:26.306Z,2767.00
2022-09-07T08:22:26.546Z,2785.00
2022-09-07T08:23:26.909Z,2903.00
2022-09-07T08:24:27.127Z,2846.00
2022-09-07T08:25:27.383Z,2968.00
2022-09-07T08:26:27.645Z,3421.00
2022-09-07T08:27:28.010Z,3138.00
2022-09-07T08:28:28.194Z,3058.00
2022-09-07T08:29:32.492Z,3150.00
2022-09-07T08:30:29.784Z,3311.00
2022-09-07T08:31:29.086Z,3359.00
2022-09-07T08:32:29.262Z,3463.00
2022-09-07T08:33:29.665Z,3524.00
2022-09-07T08:34:29.913Z,3537.00
2022-09-07T08:35:30.324Z,3602.00
2022-09-07T08:36:30.480Z,3539.00
2022-09-07T08:37:30.728Z,3854.00
2022-09-07T08:38:30.981Z,4778.00
2022-09-07T08:39:31.242Z,4591.00
2022-09-07T08:40:31.528Z,3765.00
2022-09-07T08:41:31.793Z,4124.00
2022-09-07T08:42:32.057Z,4566.00
2022-09-07T08:43:32.453Z,5425.00
2022-09-07T08:44:32.630Z,5956.00
2022-09-07T08:45:32.911Z,6381.00
2022-09-07T08:46:33.170Z,6711.00
2022-09-07T08:47:33.480Z,6798.00
2022-09-07T08:48:33.679Z,7103.00
2022-09-07T08:49:33.928Z,8568.00
2022-09-07T08:50:34.178Z,16458.00
2022-09-07T08:51:34.472Z,22367.00
2022-09-07T08:52:34.753Z,21396.00
2022-09-07T08:53:35.022Z,19164.00
2022-09-07T08:54:35.254Z,16646.00
2022-09-07T08:55:35.550Z,13004.00
2022-09-07T08:56:35.884Z,6399.00
2022-09-07T08:57:36.602Z,8593.00
2022-09-07T08:58:51.733Z,12842.00
2022-09-07T08:59:37.682Z,10975.00
2022-09-07T09:00:36.930Z,6768.00
2022-09-07T09:01:37.533Z,5866.00
2022-09-07T09:02:43.567Z,6185.00
2022-09-07T09:04:15.334Z,5638.00
2022-09-07T09:05:16.355Z,5948.00
2022-09-07T09:05:39.448Z,6860.00
2022-09-07T09:06:38.741Z,5367.00
2022-09-07T09:07:38.855Z,5377.00
2022-09-07T09:08:39.109Z,5915.00
2022-09-07T09:09:39.327Z,5725.00
2022-09-07T09:10:39.697Z,6028.00
2022-09-07T09:11:39.942Z,7068.00
2022-09-07T09:12:40.174Z,8279.00
2022-09-07T09:13:40.455Z,9475.00
2022-09-07T09:14:40.708Z,9180.00
2022-09-07T09:15:41.117Z,10490.00
2022-09-07T09:16:42.882Z,2380.00
2022-09-07T09:17:41.470Z,6075.00
2022-09-07T09:18:41.794Z,8095.00
2022-09-07T09:19:42.075Z,6005.00
2022-09-07T09:20:42.351Z,6741.00
2022-09-07T09:21:42.590Z,6609.00
2022-09-07T09:22:43.311Z,6014.00
2022-09-07T09:23:43.151Z,6736.00
2022-09-07T09:24:43.364Z,6753.00
2022-09-07T09:25:43.727Z,6705.00
2022-09-07T09:26:44.041Z,6359.00
2022-09-07T09:27:44.277Z,7073.00
2022-09-07T09:28:44.577Z,7393.00
2022-09-07T09:29:44.769Z,7643.00
2022-09-07T09:30:44.997Z,9864.00
2022-09-07T09:31:45.310Z,21877.00
2022-09-07T09:32:45.529Z,24188.00
2022-09-07T09:33:45.903Z,22766.00
2022-09-07T09:34:46.108Z,26408.00
2022-09-07T09:35:46.347Z,25241.00
2022-09-07T09:36:46.610Z,26119.00
2022-09-07T09:37:46.891Z,28344.00
2022-09-07T09:38:47.188Z,26557.00
2022-09-07T09:39:49.045Z,24386.00
2022-09-07T09:40:47.665Z,22963.00
2022-09-07T09:41:47.999Z,24066.00
2022-09-07T09:42:48.211Z,21967.00
2022-09-07T09:43:48.475Z,21851.00
2022-09-07T09:44:48.760Z,22847.00
2022-09-07T09:47:29.449Z,26133.00
2022-09-07T09:47:50.734Z,26019.00
2022-09-07T09:48:49.886Z,25843.00
2022-09-07T09:49:50.118Z,24714.00
2022-09-07T09:52:52.266Z,18939.00
2022-09-07T09:53:51.421Z,19255.00
2022-09-07T09:54:51.657Z,21479.00
2022-09-07T09:55:51.905Z,21818.00
2022-09-07T09:56:52.241Z,21460.00
2022-09-07T09:59:57.451Z,23266.00
2022-09-07T10:03:56.129Z,24614.00
2022-09-07T10:04:54.529Z,72892.00
2022-09-07T10:05:54.784Z,73463.00
2022-09-07T10:06:55.078Z,72109.00
2022-09-07T10:07:55.374Z,71229.00
2022-09-07T10:08:55.676Z,72521.00
2022-09-07T10:09:55.969Z,73932.00
2022-09-07T10:10:56.271Z,75599.00
2022-09-07T10:12:11.871Z,72496.00
2022-09-07T10:12:57.815Z,25170.00
2022-09-07T10:13:57.132Z,72442.00
2022-09-07T10:14:57.443Z,72109.00
2022-09-07T10:15:57.720Z,26167.00
2022-09-07T10:16:58.040Z,26668.00
2022-09-07T10:17:58.317Z,25538.00
2022-09-07T10:18:58.594Z,72654.00
2022-09-07T10:19:58.903Z,71192.00
2022-09-07T10:20:59.108Z,26081.00
2022-09-07T10:21:59.429Z,25759.00
2022-09-07T10:22:59.712Z,24588.00
2022-09-07T10:23:59.975Z,73053.00
2022-09-07T10:25:00.268Z,26048.00
2022-09-07T10:26:00.555Z,74752.00
2022-09-07T10:27:00.887Z,73449.00
2022-09-07T10:28:01.104Z,72524.00
2022-09-07T10:29:08.715Z,74040.00
2022-09-07T10:30:02.574Z,73447.00
2022-09-07T10:31:01.909Z,72066.00
2022-09-07T10:32:02.164Z,74927.00
2022-09-07T10:33:02.455Z,74156.00
2022-09-07T10:35:05.308Z,73749.00
2022-09-07T10:36:03.298Z,72620.00
2022-09-07T10:37:03.576Z,72969.00
2022-09-07T10:38:03.780Z,73447.00
2022-09-07T10:39:04.170Z,73028.00
2022-09-07T10:40:04.351Z,74039.00
2022-09-07T10:41:04.564Z,76395.00
2022-09-07T10:42:04.853Z,75250.00
2022-09-07T10:43:21.072Z,73841.00
2022-09-07T10:44:06.356Z,76175.00
2022-09-07T10:45:05.617Z,74718.00
2022-09-07T10:46:06.045Z,72079.00
2022-09-07T10:47:06.211Z,75360.00
2022-09-07T10:48:06.479Z,76154.00
2022-09-07T10:49:06.730Z,76014.00
2022-09-07T10:50:22.784Z,75281.00
2022-09-07T10:51:14.006Z,77672.00
2022-09-07T10:52:08.582Z,78595.00
2022-09-07T10:53:23.859Z,76834.00
2022-09-07T10:55:09.463Z,77335.00
2022-09-07T10:56:08.769Z,78462.00
2022-09-07T10:57:09.037Z,78681.00
2022-09-07T10:58:09.349Z,78217.00
2022-09-07T10:59:09.575Z,76133.00
2022-09-07T11:00:10.352Z,78573.00
2022-09-07T11:01:10.187Z,79619.00
2022-09-07T11:02:10.429Z,78800.00
2022-09-07T11:03:26.490Z,78175.00
2022-09-07T11:04:11.966Z,76577.00
2022-09-07T11:05:11.244Z,76863.00
2022-09-07T11:06:11.536Z,77342.00
2022-09-07T11:07:15.518Z,77739.00
2022-09-07T11:08:12.095Z,78973.00
2022-09-07T11:09:16.546Z,79096.00
2022-09-07T11:10:12.618Z,77344.00
2022-09-07T11:11:12.873Z,77306.00
2022-09-07T11:12:13.193Z,61512.00
2022-09-07T11:13:13.362Z,3449.00
2022-09-07T11:14:13.898Z,3477.00
2022-09-07T11:15:14.048Z,3653.00
2022-09-07T11:16:50.445Z,3422.00
2022-09-07T11:17:15.688Z,77671.00
2022-09-07T11:18:14.976Z,79002.00
2022-09-07T11:20:16.572Z,16922.00
2022-09-07T11:21:56.142Z,4570.00
2022-09-07T11:22:17.170Z,77247.00
2022-09-07T11:23:16.416Z,78073.00
2022-09-07T11:24:16.685Z,78642.00
2022-09-07T11:25:32.295Z,80431.00
2022-09-07T11:26:18.206Z,77807.00
2022-09-07T11:27:17.456Z,81217.00
2022-09-07T11:28:17.683Z,77216.00
2022-09-07T11:29:33.140Z,78999.00
2022-09-07T11:30:19.321Z,23245.00
2022-09-07T11:31:18.560Z,8419.00
2022-09-07T11:32:18.849Z,6365.00
2022-09-07T11:33:19.101Z,3724.00
2022-09-07T11:34:26.512Z,26180.00
2022-09-07T11:35:20.611Z,28097.00
2022-09-07T11:36:19.903Z,2829.00
2022-09-07T11:37:20.071Z,3844.00
2022-09-07T11:38:20.508Z,23771.00
2022-09-07T11:39:20.678Z,71877.00
2022-09-07T11:40:21.095Z,60238.00
2022-09-07T11:41:21.321Z,11664.00
2022-09-07T11:43:22.988Z,76981.00
2022-09-07T11:44:22.310Z,77614.00
2022-09-07T11:45:22.393Z,81077.00
2022-09-07T11:46:22.826Z,79829.00
2022-09-07T11:47:22.904Z,78925.00
2022-09-07T11:48:23.299Z,76351.00
2022-09-07T11:49:23.550Z,80890.00
2022-09-07T11:50:23.748Z,80383.00
2022-09-07T11:51:24.037Z,81596.00
2022-09-07T11:52:24.287Z,5614.00
2022-09-07T11:53:24.534Z,6858.00
2022-09-07T11:54:24.798Z,6122.00
2022-09-07T11:55:25.058Z,9301.00
2022-09-07T11:56:25.335Z,79995.00
2022-09-07T11:57:25.532Z,77838.00
2022-09-07T11:58:26.815Z,78005.00
2022-09-07T11:59:26.103Z,78005.00
2022-09-07T12:00:26.387Z,74710.00
2022-09-07T12:01:26.672Z,75232.00
2022-09-07T12:02:48.297Z,77300.00
2022-09-07T12:03:28.227Z,75176.00
2022-09-07T12:04:27.584Z,14406.00
2022-09-07T12:05:27.660Z,8551.00
2022-09-07T12:06:28.124Z,3648.00
2022-09-07T12:07:28.305Z,10529.00
2022-09-07T12:08:28.636Z,65256.00
2022-09-07T12:09:28.915Z,11227.00
2022-09-07T12:10:29.165Z,3720.00
2022-09-07T12:11:30.349Z,76621.00
2022-09-07T12:12:29.719Z,82711.00
2022-09-07T12:13:29.954Z,81030.00
2022-09-07T12:14:30.258Z,8414.00
2022-09-07T12:15:30.549Z,18231.00
2022-09-07T12:16:30.784Z,1477.00
2022-09-07T12:17:31.065Z,1476.00
2022-09-07T12:18:31.374Z,1634.00
2022-09-07T12:19:31.631Z,1506.00
2022-09-07T12:20:31.897Z,651.00
2022-09-07T12:21:32.170Z,71487.00
2022-09-07T12:22:32.396Z,1215.00
2022-09-07T12:23:32.638Z,21770.00
2022-09-07T12:24:32.975Z,8829.00
2022-09-07T12:25:33.237Z,10254.00
2022-09-07T12:26:33.488Z,2833.00
2022-09-07T12:27:34.640Z,14383.00
2022-09-07T12:28:34.154Z,79543.00
2022-09-07T12:29:34.345Z,75751.00
2022-09-07T12:30:34.581Z,75089.00
2022-09-07T12:31:39.746Z,76742.00
2022-09-07T12:33:36.408Z,5526.00
2022-09-07T12:34:35.794Z,5044.00
2022-09-07T12:35:35.994Z,4890.00
2022-09-07T12:36:36.231Z,4589.00
2022-09-07T12:37:36.467Z,7224.00
2022-09-07T12:38:36.798Z,6090.00
2022-09-07T12:39:37.589Z,5064.00
2022-09-07T12:40:37.451Z,4600.00
2022-09-07T12:41:37.656Z,5282.00
2022-09-07T12:42:37.942Z,4559.00
2022-09-07T12:43:38.163Z,4262.00
2022-09-07T12:44:38.416Z,5385.00
2022-09-07T12:45:38.657Z,4515.00
2022-09-07T12:46:38.978Z,3906.00
2022-09-07T12:47:39.136Z,3093.00
2022-09-07T12:48:39.467Z,2805.00
2022-09-07T12:49:39.818Z,2549.00
2022-09-07T12:50:40.449Z,2379.00
2022-09-07T12:52:41.753Z,2496.00
2022-09-07T12:53:41.061Z,2467.00
2022-09-07T12:54:41.391Z,2708.00
2022-09-07T12:56:43.180Z,2652.00
2022-09-07T12:57:42.228Z,2422.00
2022-09-07T12:58:42.488Z,2765.00
2022-09-07T12:59:42.766Z,3118.00
2022-09-07T13:00:43.058Z,5150.00
2022-09-07T13:01:43.842Z,4597.00
2022-09-07T13:02:43.803Z,4747.00
2022-09-07T13:03:51.960Z,4971.00
2022-09-07T13:04:45.179Z,5900.00
2022-09-07T13:05:44.501Z,5586.00
2022-09-07T13:07:45.930Z,5048.00
2022-09-07T13:08:45.461Z,5895.00
2022-09-07T13:09:45.529Z,5116.00